Time;durP1;ratioP1;P1;durP2;ratioP2;P2;SDS_P1;SDS_P2;PMS_P1;PMS_P2;Temp;Humidity;BMP_temperature;BMP_pressure;BME280_temperature;BME280_humidity;BME280_pressure;Samples;Min_cycle;Max_cycle;Signal;HPM_P1;HPM_P2
2021/09/29 00:00:22;;;;;;;25.33;20.37;;;;;;;15.71;100.00;95347.94;5134479;27;20444;-78
2021/09/29 00:02:49;;;;;;;24.97;21.03;;;;;;;15.82;100.00;95339.78;5134059;27;20448;-78
2021/09/29 00:05:16;;;;;;;22.43;19.83;;;;;;;15.95;100.00;95336.75;5133990;27;20446;-78
2021/09/29 00:07:43;;;;;;;21.30;18.03;;;;;;;16.04;100.00;95346.44;5134738;27;20489;-78
2021/09/29 00:10:12;;;;;;;22.50;17.40;;;;;;;16.05;100.00;95342.78;5133914;27;20925;-78
2021/09/29 00:12:39;;;;;;;23.13;18.40;;;;;;;16.04;100.00;95341.13;5134076;27;20805;-78
2021/09/29 00:15:13;;;;;;;23.30;16.90;;;;;;;15.80;100.00;95341.72;5133916;27;20448;-78
2021/09/29 00:17:40;;;;;;;18.90;15.30;;;;;;;15.78;100.00;95349.00;5099079;27;20435;-78
2021/09/29 00:20:08;;;;;;;24.93;16.40;;;;;;;15.94;100.00;95343.88;5134109;27;20453;-78
2021/09/29 00:22:35;;;;;;;17.87;15.97;;;;;;;16.16;100.00;95357.59;5133963;27;20439;-78
2021/09/29 00:25:03;;;;;;;17.30;14.67;;;;;;;16.29;100.00;95360.72;5133640;27;20450;-78
2021/09/29 00:27:31;;;;;;;14.20;12.80;;;;;;;16.24;100.00;95358.53;5133932;27;20966;-78
2021/09/29 00:30:00;;;;;;;15.63;13.00;;;;;;;16.16;100.00;95350.50;5133526;27;20817;-79
2021/09/29 00:32:28;;;;;;;15.67;14.07;;;;;;;15.96;100.00;95355.13;5114729;27;20474;-78
2021/09/29 00:34:55;;;;;;;16.53;14.37;;;;;;;16.10;100.00;95351.09;5133853;27;20442;-78
2021/09/29 00:37:22;;;;;;;17.70;15.13;;;;;;;16.26;100.00;95347.78;5133518;27;21058;-78
2021/09/29 00:39:49;;;;;;;15.00;13.40;;;;;;;16.42;100.00;95354.00;5097727;27;20446;-78
2021/09/29 00:42:16;;;;;;;20.97;15.10;;;;;;;16.54;100.00;95356.44;5133141;27;20640;-79
2021/09/29 00:44:45;;;;;;;15.60;13.67;;;;;;;16.42;99.19;95354.00;5133610;27;20449;-78
2021/09/29 00:47:12;;;;;;;14.03;11.97;;;;;;;16.58;98.67;95363.91;5133811;27;20506;-78
2021/09/29 00:49:39;;;;;;;17.33;14.23;;;;;;;16.66;98.94;95364.00;5133675;27;20445;-78
2021/09/29 00:52:07;;;;;;;14.27;12.87;;;;;;;16.70;97.98;95367.16;5133587;27;20818;-78
2021/09/29 00:54:34;;;;;;;14.20;12.80;;;;;;;16.77;97.22;95362.91;5133254;27;20929;-78
2021/09/29 00:57:01;;;;;;;11.00;9.90;;;;;;;16.78;97.28;95358.44;5133175;27;20442;-78
2021/09/29 00:59:28;;;;;;;11.20;9.97;;;;;;;16.81;95.99;95358.97;5133635;27;20434;-78
2021/09/29 01:01:57;;;;;;;10.27;8.57;;;;;;;16.81;95.29;95351.00;5133091;27;21002;-78
2021/09/29 01:04:27;;;;;;;13.37;9.37;;;;;;;16.81;94.46;95353.66;5133598;27;20822;-78
2021/09/29 01:07:00;;;;;;;11.23;9.10;;;;;;;16.77;94.06;95356.75;5098056;27;20446;-78
2021/09/29 01:09:35;;;;;;;9.13;8.20;;;;;;;16.72;93.42;95355.41;5133482;27;20454;-78
2021/09/29 01:12:07;;;;;;;9.00;8.10;;;;;;;16.69;93.00;95353.06;5133191;27;20916;-78
2021/09/29 01:14:44;;;;;;;9.73;7.70;;;;;;;16.68;92.46;95353.22;5133222;27;20471;-79
2021/09/29 01:17:16;;;;;;;9.13;8.23;;;;;;;16.69;92.48;95353.06;5097310;28;20486;-78
2021/09/29 01:19:56;;;;;;;9.37;8.37;;;;;;;16.70;92.41;95356.56;5133090;27;20450;-78
2021/09/29 01:22:34;;;;;;;11.77;9.13;;;;;;;16.58;91.83;95349.81;5133495;27;20917;-78
2021/09/29 01:25:04;;;;;;;10.30;9.30;;;;;;;16.38;92.95;95341.22;5133093;27;20447;-78
2021/09/29 01:27:36;;;;;;;9.33;8.50;;;;;;;16.18;93.43;95351.16;5132799;27;20808;-78
2021/09/29 01:30:03;;;;;;;9.57;8.57;;;;;;;16.10;94.36;95349.28;5133311;27;20468;-78
2021/09/29 01:32:31;;;;;;;9.37;8.57;;;;;;;16.09;94.93;95352.91;5132996;27;20466;-78
2021/09/29 01:34:59;;;;;;;11.37;10.10;;;;;;;16.03;94.84;95352.72;5132960;27;20444;-78
2021/09/29 01:37:26;;;;;;;11.90;9.40;;;;;;;16.03;95.19;95353.53;5137097;27;20812;-78
2021/09/29 01:39:53;;;;;;;10.10;9.30;;;;;;;16.16;94.93;95358.44;5101155;27;20452;-78
2021/09/29 01:42:20;;;;;;;11.43;10.33;;;;;;;16.18;94.74;95355.63;5100990;27;20512;-78
2021/09/29 01:44:48;;;;;;;10.43;9.33;;;;;;;16.00;94.95;95361.78;5117977;27;21019;-78
2021/09/29 01:47:15;;;;;;;10.53;9.40;;;;;;;16.10;94.44;95364.34;5136734;27;20440;-79
2021/09/29 01:49:46;;;;;;;9.50;8.60;;;;;;;16.07;94.22;95365.47;5137055;27;20797;-78
2021/09/29 01:52:13;;;;;;;8.77;8.00;;;;;;;16.14;93.29;95364.88;5136843;27;20487;-78
2021/09/29 01:54:45;;;;;;;8.33;7.70;;;;;;;15.87;94.38;95363.97;5136637;27;20446;-78
2021/09/29 01:57:13;;;;;;;10.27;9.40;;;;;;;15.65;95.58;95359.97;5136773;27;20440;-78
2021/09/29 01:59:43;;;;;;;10.10;9.20;;;;;;;15.71;95.88;95356.72;5136479;27;21011;-78
2021/09/29 02:02:12;;;;;;;9.33;8.63;;;;;;;15.65;95.31;95353.84;5136281;27;20566;-79
2021/09/29 02:04:44;;;;;;;11.20;7.80;;;;;;;15.56;95.73;95349.38;5136523;27;20944;-78
2021/09/29 02:07:11;;;;;;;11.37;9.97;;;;;;;15.50;96.31;95358.75;5136709;27;20446;-78
2021/09/29 02:09:38;;;;;;;10.27;9.37;;;;;;;15.63;95.73;95361.91;5136198;27;20495;-78
2021/09/29 02:12:05;;;;;;;10.60;9.60;;;;;;;15.58;95.68;95358.00;5136578;27;21006;-78
2021/09/29 02:14:32;;;;;;;11.00;10.00;;;;;;;15.60;95.32;95361.38;5136714;27;20488;-78
2021/09/29 02:17:00;;;;;;;10.83;9.00;;;;;;;15.58;94.87;95361.50;5100363;27;20432;-78
2021/09/29 02:19:28;;;;;;;10.67;9.53;;;;;;;15.54;95.39;95361.94;5136483;27;20944;-78
2021/09/29 02:21:56;;;;;;;10.53;9.63;;;;;;;15.46;95.22;95366.16;5100110;27;20556;-78
2021/09/29 02:24:23;;;;;;;14.17;10.30;;;;;;;15.48;95.50;95372.13;5136264;27;20817;-78
2021/09/29 02:26:50;;;;;;;11.63;9.60;;;;;;;15.31;95.91;95372.91;5100157;27;20527;-78
2021/09/29 02:29:18;;;;;;;11.17;9.67;;;;;;;15.18;96.99;95375.91;5136613;27;20437;-78
2021/09/29 02:31:45;;;;;;;10.50;9.40;;;;;;;15.14;96.99;95377.19;5135980;27;20476;-78
2021/09/29 02:34:12;;;;;;;9.63;8.73;;;;;;;15.05;97.64;95374.59;5136030;27;20440;-78
2021/09/29 02:36:41;;;;;;;11.00;10.00;;;;;;;15.27;97.06;95382.13;5099765;27;20443;-78
2021/09/29 02:39:08;;;;;;;9.70;8.80;;;;;;;15.38;96.90;95383.75;5099874;27;20957;-79
2021/09/29 02:41:36;;;;;;;10.13;9.27;;;;;;;15.51;96.15;95384.22;5099444;27;20485;-79
2021/09/29 02:44:08;;;;;;;10.27;9.37;;;;;;;15.64;95.83;95382.09;5135874;27;20444;-78
2021/09/29 02:46:35;;;;;;;9.90;8.67;;;;;;;15.72;95.16;95386.66;5135312;27;20509;-78
2021/09/29 02:49:02;;;;;;;9.30;8.33;;;;;;;15.75;94.88;95387.16;5134770;27;20452;-79
2021/09/29 02:51:29;;;;;;;11.83;8.90;;;;;;;15.77;94.40;95385.22;5099825;27;20952;-78
2021/09/29 02:53:57;;;;;;;9.47;8.60;;;;;;;15.78;94.63;95380.75;5135393;27;20442;-78
2021/09/29 02:56:25;;;;;;;8.87;7.97;;;;;;;15.79;94.52;95387.72;5135452;27;20435;-78
2021/09/29 02:58:52;;;;;;;13.20;8.13;;;;;;;15.68;94.96;95382.63;5135417;27;20445;-79
2021/09/29 03:01:19;;;;;;;9.60;8.20;;;;;;;15.72;94.86;95386.66;5135352;27;20448;-78
2021/09/29 03:03:46;;;;;;;8.20;7.50;;;;;;;15.50;95.57;95393.13;5135536;27;20446;-78
2021/09/29 03:06:13;;;;;;;9.43;8.47;;;;;;;15.50;95.04;95390.50;5135152;27;20446;-78
2021/09/29 03:08:40;;;;;;;7.90;7.20;;;;;;;15.54;95.18;95393.66;5135403;27;20446;-78
2021/09/29 03:11:10;;;;;;;9.83;8.67;;;;;;;15.34;95.19;95391.16;5135264;27;20946;-79
2021/09/29 03:13:37;;;;;;;8.93;8.23;;;;;;;15.32;95.87;95387.78;5135163;27;20445;-79
2021/09/29 03:16:05;;;;;;;9.33;8.43;;;;;;;15.33;96.28;95386.00;5135329;27;20808;-78
2021/09/29 03:18:31;;;;;;;9.10;8.20;;;;;;;15.35;96.53;95384.88;5135112;27;20447;-78
2021/09/29 03:20:58;;;;;;;7.63;6.87;;;;;;;15.30;96.94;95383.63;5135172;27;20439;-78
2021/09/29 03:23:26;;;;;;;8.27;7.47;;;;;;;15.27;97.00;95379.47;5135052;27;20695;-78
2021/09/29 03:25:53;;;;;;;9.83;9.00;;;;;;;15.33;96.65;95386.84;5134960;27;20448;-78
2021/09/29 03:28:21;;;;;;;9.33;8.43;;;;;;;15.37;96.45;95380.28;5135242;27;20567;-78
2021/09/29 03:30:48;;;;;;;9.43;8.23;;;;;;;15.38;96.46;95381.09;5134870;27;20446;-79
2021/09/29 03:33:15;;;;;;;9.57;8.50;;;;;;;15.41;96.88;95384.28;5135280;27;20476;-79
2021/09/29 03:35:43;;;;;;;9.53;8.53;;;;;;;15.39;96.21;95386.25;5135076;27;20803;-78
2021/09/29 03:38:10;;;;;;;9.57;8.77;;;;;;;15.43;96.59;95381.50;5134878;27;20445;-78
2021/09/29 03:40:37;;;;;;;10.43;9.07;;;;;;;15.49;96.27;95378.25;5134768;27;20444;-78
2021/09/29 03:43:05;;;;;;;8.83;8.10;;;;;;;15.54;95.73;95372.50;5098456;27;20473;-78
2021/09/29 03:45:33;;;;;;;8.80;8.10;;;;;;;15.60;95.36;95372.78;5134641;27;20996;-79
2021/09/29 03:48:00;;;;;;;16.23;9.40;;;;;;;15.42;95.31;95372.72;5134421;27;20442;-78
2021/09/29 03:50:27;;;;;;;9.23;8.43;;;;;;;15.56;96.14;95365.25;5134686;27;20443;-78
2021/09/29 03:52:54;;;;;;;9.90;9.00;;;;;;;15.65;96.16;95367.06;5098598;27;20461;-79
2021/09/29 03:55:22;;;;;;;9.17;8.27;;;;;;;15.68;95.81;95366.75;5134460;27;20452;-78
2021/09/29 03:57:49;;;;;;;9.47;8.53;;;;;;;15.46;95.88;95371.44;5134176;27;20447;-78
2021/09/29 04:00:16;;;;;;;8.93;8.03;;;;;;;15.44;95.17;95362.00;5134103;27;20444;-79
2021/09/29 04:02:45;;;;;;;10.80;9.37;;;;;;;15.44;94.25;95369.94;5134417;27;20836;-78
2021/09/29 04:05:12;;;;;;;9.63;8.40;;;;;;;15.49;93.93;95368.50;5134363;27;20529;-79
2021/09/29 04:07:40;;;;;;;7.37;6.70;;;;;;;15.39;93.10;95378.31;5133969;27;20445;-78
2021/09/29 04:10:09;;;;;;;11.43;8.43;;;;;;;15.09;94.18;95366.22;5134043;27;20803;-78
2021/09/29 04:12:39;;;;;;;9.33;8.43;;;;;;;15.30;93.94;95376.53;5134195;27;20935;-78
2021/09/29 04:15:07;;;;;;;10.13;9.10;;;;;;;15.44;92.72;95378.69;5133844;27;20450;-78
2021/09/29 04:17:36;;;;;;;10.70;9.60;;;;;;;15.25;92.98;95376.16;5133678;27;20452;-78
2021/09/29 04:20:06;;;;;;;10.10;9.10;;;;;;;14.82;95.80;95379.38;5133936;27;20473;-79
2021/09/29 04:22:33;;;;;;;8.93;8.13;;;;;;;15.03;94.94;95390.56;5097785;27;21007;-78
2021/09/29 04:25:00;;;;;;;11.50;9.57;;;;;;;15.16;95.39;95390.25;5133999;27;20923;-78
2021/09/29 04:27:27;;;;;;;11.73;9.43;;;;;;;15.12;95.71;95388.88;5133694;27;20950;-79
2021/09/29 04:29:54;;;;;;;13.77;9.10;;;;;;;15.16;96.22;95385.78;5133707;27;20535;-78
2021/09/29 04:32:21;;;;;;;9.77;8.87;;;;;;;15.20;95.99;95396.91;5097554;27;20471;-79
2021/09/29 04:34:48;;;;;;;11.17;8.77;;;;;;;15.24;95.88;95397.44;5133458;27;20947;-80
2021/09/29 04:37:16;;;;;;;11.70;9.50;;;;;;;15.12;95.53;95400.28;5133471;27;20442;-79
2021/09/29 04:39:44;;;;;;;11.17;9.27;;;;;;;15.03;95.49;95405.59;5133326;27;20635;-80
2021/09/29 04:42:11;;;;;;;13.30;9.67;;;;;;;14.98;96.04;95407.84;5097460;27;21026;-79
2021/09/29 04:44:38;;;;;;;12.40;10.13;;;;;;;14.76;96.71;95409.03;5133248;27;20459;-80
2021/09/29 04:47:05;;;;;;;16.50;9.37;;;;;;;14.80;97.20;95407.75;5133231;27;21003;-80
2021/09/29 04:49:32;;;;;;;10.47;9.33;;;;;;;14.68;97.03;95408.88;5133366;27;20533;-80
2021/09/29 04:51:59;;;;;;;12.60;9.40;;;;;;;14.49;97.92;95400.03;5097469;27;20446;-80
2021/09/29 04:54:28;;;;;;;10.63;9.53;;;;;;;14.61;98.00;95400.72;5097104;27;20447;-80
2021/09/29 04:56:55;;;;;;;12.63;10.07;;;;;;;14.66;98.17;95401.09;5133361;27;20439;-78
2021/09/29 04:59:21;;;;;;;11.30;9.97;;;;;;;14.84;98.53;95404.69;5133095;27;20446;-80
2021/09/29 05:01:49;;;;;;;13.93;9.33;;;;;;;14.77;96.73;95400.97;5133320;27;20445;-80
2021/09/29 05:04:17;;;;;;;10.07;9.07;;;;;;;14.91;96.60;95402.31;5097412;27;20439;-79
2021/09/29 05:06:45;;;;;;;12.03;10.70;;;;;;;14.81;97.22;95396.22;5132878;27;20925;-80
2021/09/29 05:09:12;;;;;;;12.10;9.90;;;;;;;14.92;97.15;95403.13;5097856;27;20783;-80
2021/09/29 05:11:45;;;;;;;9.97;8.90;;;;;;;14.72;97.87;95411.09;5133252;27;20804;-80
2021/09/29 05:14:12;;;;;;;12.57;10.50;;;;;;;14.59;97.91;95413.22;5134002;27;20512;-80
2021/09/29 05:16:39;;;;;;;14.40;12.03;;;;;;;14.59;98.26;95415.88;5097992;28;20441;-80
2021/09/29 05:19:06;;;;;;;11.23;9.70;;;;;;;14.61;98.02;95418.38;5134212;28;20452;-80
2021/09/29 05:21:34;;;;;;;11.87;10.63;;;;;;;14.67;98.34;95417.78;5134411;27;20792;-80
2021/09/29 05:24:01;;;;;;;11.20;10.00;;;;;;;14.64;98.12;95412.78;5115154;28;21019;-80
2021/09/29 05:26:28;;;;;;;12.70;10.90;;;;;;;14.55;98.76;95423.25;5134057;28;20440;-80
2021/09/29 05:28:58;;;;;;;10.77;9.43;;;;;;;14.50;98.69;95424.66;5134120;28;20518;-80
2021/09/29 05:31:25;;;;;;;15.13;9.50;;;;;;;14.60;98.66;95421.97;5097751;28;20792;-79
2021/09/29 05:33:52;;;;;;;12.63;10.23;;;;;;;14.59;98.74;95417.66;5134031;27;20453;-80
2021/09/29 05:36:19;;;;;;;12.23;10.53;;;;;;;14.55;99.46;95438.25;5133601;27;20440;-80
2021/09/29 05:38:46;;;;;;;12.03;10.73;;;;;;;14.61;99.18;95437.69;5134097;28;20439;-80
2021/09/29 05:41:13;;;;;;;13.10;11.30;;;;;;;14.68;99.32;95430.84;5133931;27;20440;-80
2021/09/29 05:43:40;;;;;;;11.07;9.97;;;;;;;14.59;99.49;95436.16;5133387;28;20527;-79
2021/09/29 05:46:09;;;;;;;10.13;9.13;;;;;;;14.82;98.95;95440.16;5133707;27;20436;-80
2021/09/29 05:48:36;;;;;;;17.17;11.03;;;;;;;15.28;100.00;95444.59;5133994;27;20446;-80
2021/09/29 05:51:03;;;;;;;12.03;9.10;;;;;;;15.88;99.04;95444.19;5133975;28;20470;-79
2021/09/29 05:53:30;;;;;;;10.13;8.23;;;;;;;16.34;94.43;95437.88;5133918;27;20467;-79
2021/09/29 05:55:57;;;;;;;9.50;8.50;;;;;;;16.49;88.75;95457.56;5098094;28;20444;-79
2021/09/29 05:58:24;;;;;;;8.80;7.63;;;;;;;16.59;88.78;95455.66;5133770;27;20455;-78
2021/09/29 06:00:51;;;;;;;7.57;6.87;;;;;;;16.27;88.76;95453.56;5133451;27;20453;-79
2021/09/29 06:03:20;;;;;;;9.17;8.27;;;;;;;15.84;90.65;95451.59;5133557;27;20483;-78
2021/09/29 06:05:48;;;;;;;7.07;6.40;;;;;;;15.30;93.08;95457.66;5133694;27;20501;-78
2021/09/29 06:08:15;;;;;;;8.17;7.37;;;;;;;15.46;93.28;95460.53;5133617;27;20442;-79
2021/09/29 06:10:42;;;;;;;7.93;7.23;;;;;;;15.43;93.29;95461.66;5096380;28;20462;-79
2021/09/29 06:13:09;;;;;;;9.13;8.23;;;;;;;15.22;94.51;95466.34;5132562;27;20449;-79
2021/09/29 06:15:36;;;;;;;9.20;8.37;;;;;;;15.07;96.18;95465.97;5132654;27;20530;-78
2021/09/29 06:18:03;;;;;;;8.67;7.87;;;;;;;15.01;95.77;95465.69;5132370;27;20524;-79
2021/09/29 06:20:35;;;;;;;8.67;7.87;;;;;;;15.07;96.30;95460.69;5132491;27;20442;-78
2021/09/29 06:23:02;;;;;;;8.93;7.50;;;;;;;15.15;96.51;95460.78;5134967;27;20574;-78
2021/09/29 06:25:30;;;;;;;11.50;9.50;;;;;;;15.10;96.35;95468.31;5136012;27;20852;-78
2021/09/29 06:27:57;;;;;;;10.33;9.03;;;;;;;15.10;96.72;95472.78;5136434;27;20431;-78
2021/09/29 06:30:25;;;;;;;16.13;11.77;;;;;;;14.79;97.59;95469.50;5135841;27;20804;-79
2021/09/29 06:32:52;;;;;;;10.00;9.10;;;;;;;14.83;97.73;95466.44;5136281;27;20481;-78
2021/09/29 06:35:19;;;;;;;13.90;12.07;;;;;;;15.05;96.86;95467.09;5136078;27;20443;-82
2021/09/29 06:37:47;;;;;;;10.60;9.27;;;;;;;15.05;96.37;95475.03;5136025;27;20438;-81
2021/09/29 06:40:16;;;;;;;15.57;11.73;;;;;;;15.06;96.87;95466.94;5136260;27;20525;-81
2021/09/29 06:42:44;;;;;;;9.07;8.17;;;;;;;15.00;96.63;95478.06;5136696;27;20492;-81
2021/09/29 06:45:12;;;;;;;9.87;8.87;;;;;;;15.17;96.54;95476.50;5136938;27;20442;-80
2021/09/29 06:47:40;;;;;;;8.27;7.47;;;;;;;15.13;95.77;95480.41;5136866;27;20444;-79
2021/09/29 06:50:09;;;;;;;8.20;6.90;;;;;;;14.82;96.89;95479.78;5136611;27;20446;-78
2021/09/29 06:52:37;;;;;;;8.20;7.40;;;;;;;15.01;96.97;95478.91;5136575;27;20456;-79
2021/09/29 06:55:07;;;;;;;8.73;7.93;;;;;;;15.05;97.53;95485.59;5100082;27;20436;-78
2021/09/29 06:57:34;;;;;;;8.67;7.83;;;;;;;15.13;97.21;95483.91;5136109;27;20453;-79
2021/09/29 07:00:01;;;;;;;12.77;10.27;;;;;;;15.08;97.53;95488.78;5136603;27;20807;-78
2021/09/29 07:02:28;;;;;;;14.63;11.20;;;;;;;15.11;97.54;95487.66;5135442;27;20449;-79
2021/09/29 07:04:55;;;;;;;13.37;10.30;;;;;;;15.09;97.46;95485.16;5134902;27;20468;-79
2021/09/29 07:07:22;;;;;;;9.73;8.67;;;;;;;15.10;97.39;95493.94;5116708;27;20440;-78
2021/09/29 07:09:49;;;;;;;11.00;9.43;;;;;;;15.16;97.32;95491.53;5136202;27;20559;-78
2021/09/29 07:12:17;;;;;;;11.40;10.20;;;;;;;15.03;97.61;95496.28;5134599;27;20524;-78
2021/09/29 07:14:44;;;;;;;11.33;9.43;;;;;;;15.08;97.74;95493.25;5135790;27;20766;-78
2021/09/29 07:17:11;;;;;;;9.67;8.77;;;;;;;15.17;97.38;95500.31;5135091;27;20452;-78
2021/09/29 07:19:39;;;;;;;9.07;8.17;;;;;;;15.06;96.81;95495.19;5134702;27;20491;-78
2021/09/29 07:22:06;;;;;;;10.30;8.87;;;;;;;15.10;97.36;95497.41;5133112;27;20460;-78
2021/09/29 07:24:33;;;;;;;9.60;8.70;;;;;;;15.00;96.66;95486.00;5135557;27;20505;-78
2021/09/29 07:27:00;;;;;;;10.97;9.87;;;;;;;15.05;96.88;95493.53;5135831;27;20519;-78
2021/09/29 07:29:29;;;;;;;13.23;9.90;;;;;;;14.81;98.21;95492.16;5099558;27;20453;-78
2021/09/29 07:31:55;;;;;;;10.20;9.23;;;;;;;14.93;98.34;95492.00;5115882;27;20472;-78
2021/09/29 07:34:23;;;;;;;9.40;8.43;;;;;;;14.76;97.10;95498.84;5133982;27;20454;-78
2021/09/29 07:36:50;;;;;;;11.57;10.10;;;;;;;14.84;97.26;95498.97;5134004;27;20448;-78
2021/09/29 07:39:18;;;;;;;11.50;10.40;;;;;;;15.05;97.48;95507.56;5134993;27;20961;-78
2021/09/29 07:41:45;;;;;;;10.30;9.30;;;;;;;15.12;97.01;95511.31;5134049;27;20434;-78
2021/09/29 07:44:13;;;;;;;9.50;8.50;;;;;;;15.10;95.79;95515.91;5133736;27;20985;-78
2021/09/29 07:46:42;;;;;;;12.30;10.67;;;;;;;15.10;96.43;95509.78;5098322;27;20453;-78
2021/09/29 07:49:11;;;;;;;10.50;9.47;;;;;;;15.18;95.56;95513.38;5134460;27;20536;-78
2021/09/29 07:51:38;;;;;;;15.03;10.87;;;;;;;15.24;96.74;95514.63;5114791;27;20436;-78
2021/09/29 07:54:05;;;;;;;13.90;10.00;;;;;;;15.15;96.79;95513.66;5132356;27;20942;-78
2021/09/29 07:56:32;;;;;;;12.53;10.97;;;;;;;15.16;96.70;95510.03;5134319;27;20441;-78
2021/09/29 07:58:59;;;;;;;13.20;11.30;;;;;;;15.08;97.28;95520.50;5134981;27;20445;-78
2021/09/29 08:01:25;;;;;;;15.23;13.37;;;;;;;15.10;96.88;95517.72;5134719;27;20440;-78
2021/09/29 08:03:54;;;;;;;12.83;11.00;;;;;;;15.03;96.78;95524.53;5135181;27;20485;-77
2021/09/29 08:06:21;;;;;;;15.30;10.90;;;;;;;14.94;97.26;95517.44;5134570;27;20487;-78
2021/09/29 08:08:48;;;;;;;17.00;11.50;;;;;;;14.99;97.37;95523.16;5132284;27;20450;-78
2021/09/29 08:11:16;;;;;;;11.23;9.63;;;;;;;14.87;97.07;95523.31;5132136;27;20514;-78
2021/09/29 08:13:43;;;;;;;13.43;10.40;;;;;;;14.88;96.61;95518.84;5134227;27;20494;-78
2021/09/29 08:16:10;;;;;;;14.97;11.50;;;;;;;14.84;97.45;95522.75;5133951;27;20446;-78
2021/09/29 08:18:37;;;;;;;27.43;13.73;;;;;;;15.00;97.02;95522.16;5134110;27;20454;-78
2021/09/29 08:21:12;;;;;;;12.47;11.20;;;;;;;14.98;97.24;95510.91;5133543;27;20449;-78
2021/09/29 08:23:40;;;;;;;16.57;12.40;;;;;;;15.05;97.02;95525.25;5113378;27;20569;-78
2021/09/29 08:26:30;;;;;;;14.30;11.87;;;;;;;14.94;95.93;95523.56;5133882;27;20525;-78
2021/09/29 08:29:13;;;;;;;18.67;13.67;;;;;;;15.14;97.26;95524.38;5132847;27;20439;-78
2021/09/29 08:31:44;;;;;;;15.50;12.10;;;;;;;15.16;95.74;95528.56;5133149;27;20546;-78
2021/09/29 08:34:18;;;;;;;15.40;12.93;;;;;;;15.27;96.10;95524.91;5098605;27;20446;-78
2021/09/29 08:36:54;;;;;;;14.47;11.10;;;;;;;15.27;95.63;95527.53;5132456;27;20802;-78
2021/09/29 08:39:28;;;;;;;17.20;11.83;;;;;;;15.49;95.32;95523.72;5113103;28;20536;-78
2021/09/29 08:42:06;;;;;;;15.93;13.67;;;;;;;15.61;94.73;95527.91;5113013;28;20949;-78
2021/09/29 08:44:40;;;;;;;16.90;13.70;;;;;;;15.57;93.75;95536.22;5115472;27;20543;-78
2021/09/29 08:47:15;;;;;;;12.40;10.67;;;;;;;15.64;93.91;95529.44;5133113;27;20980;-78
2021/09/29 08:49:54;;;;;;;15.37;12.13;;;;;;;15.65;92.91;95528.44;5098745;27;20848;-78
2021/09/29 09:17:39;;;;;;;15.33;11.90;;;;;;;16.53;89.17;95535.75;5133874;28;20422;-78
2021/09/29 09:20:16;;;;;;;12.73;10.90;;;;;;;16.66;88.97;95535.41;5114585;28;20433;-78
2021/09/29 09:22:43;;;;;;;12.73;11.53;;;;;;;16.72;88.20;95537.44;5113739;28;20479;-77
2021/09/29 09:25:12;;;;;;;13.37;11.97;;;;;;;16.81;88.01;95543.66;5133169;28;20493;-78
2021/09/29 09:27:45;;;;;;;12.77;11.50;;;;;;;16.89;87.65;95535.78;5132749;28;20448;-77
2021/09/29 09:30:25;;;;;;;15.80;12.70;;;;;;;16.90;88.05;95540.94;5130303;28;20801;-78
2021/09/29 09:32:55;;;;;;;15.63;13.57;;;;;;;16.84;87.40;95540.72;5068166;28;20572;-77
2021/09/29 09:35:23;;;;;;;18.53;11.90;;;;;;;16.59;87.38;95544.91;5132713;28;20966;-77
2021/09/29 09:37:55;;;;;;;13.60;10.23;;;;;;;16.50;87.76;95544.00;5132789;27;20545;-77
2021/09/29 09:40:26;;;;;;;15.70;11.20;;;;;;;16.64;87.20;95535.53;5132398;27;20448;-77
2021/09/29 09:42:57;;;;;;;12.33;9.00;;;;;;;16.41;87.07;95543.06;5132397;27;20481;-77
2021/09/29 09:45:40;;;;;;;13.47;10.27;;;;;;;16.47;88.22;95541.63;5132549;27;20877;-78
2021/09/29 09:48:22;;;;;;;10.40;9.27;;;;;;;16.37;88.26;95544.34;5132953;27;20437;-77
2021/09/29 09:50:53;;;;;;;14.17;11.07;;;;;;;16.15;88.80;95543.94;5132599;27;20420;-78
2021/09/29 09:53:20;;;;;;;14.77;11.90;;;;;;;16.15;89.19;95549.22;5132891;28;20445;-78
2021/09/29 09:55:50;;;;;;;13.90;11.43;;;;;;;16.27;89.47;95537.47;5132800;27;20438;-78
2021/09/29 09:58:17;;;;;;;13.40;10.40;;;;;;;16.23;87.98;95547.53;5136078;27;20446;-77
2021/09/29 10:00:44;;;;;;;13.03;11.07;;;;;;;16.25;89.24;95547.38;5117276;27;20448;-78
2021/09/29 10:03:11;;;;;;;13.37;10.23;;;;;;;16.32;89.30;95549.28;5136157;27;20444;-77
2021/09/29 10:05:42;;;;;;;10.83;8.50;;;;;;;16.27;87.85;95558.66;5136437;27;20940;-77
2021/09/29 10:08:10;;;;;;;14.10;10.23;;;;;;;16.07;89.53;95545.50;5136229;27;20547;-77
2021/09/29 10:10:44;;;;;;;12.60;10.00;;;;;;;16.13;89.12;95545.91;5135370;27;20491;-77
2021/09/29 10:27:14;;;;;;;16.33;12.03;;;;;;;16.22;89.66;95540.56;5093369;28;20426;-77
2021/09/29 10:29:46;;;;;;;16.30;12.40;;;;;;;16.33;89.66;95547.47;5093463;28;20455;-77
2021/09/29 10:32:18;;;;;;;11.87;10.53;;;;;;;16.24;88.75;95543.06;5093258;28;20467;-77
2021/09/29 10:35:06;;;;;;;14.77;12.17;;;;;;;16.18;89.12;95540.97;5076961;28;20554;-77
2021/09/29 10:37:54;;;;;;;14.00;12.13;;;;;;;15.96;90.31;95539.59;5093611;28;20567;-77
2021/09/29 10:43:04;;;;;;;15.83;12.83;;;;;;;16.01;90.69;95540.81;5033039;28;20863;-77
2021/09/29 10:45:52;;;;;;;15.07;11.67;;;;;;;15.94;91.21;95539.75;5032800;28;20521;-77
2021/09/29 10:48:42;;;;;;;16.23;13.07;;;;;;;16.06;90.98;95541.19;5032792;28;20874;-77
2021/09/29 11:03:11;;;;;;;20.70;13.60;;;;;;;15.77;91.64;95541.34;5090322;28;21005;-77
2021/09/29 11:30:46;;;;;;;21.43;15.90;;;;;;;15.77;92.34;95529.91;5070196;28;20424;-77
2021/09/29 12:27:40;;;;;;;26.88;19.77;;;;;;;16.86;100.00;95514.88;5110904;27;20413;-78
2021/09/29 12:30:18;;;;;;;37.67;22.30;;;;;;;16.76;97.16;95524.72;5092558;28;20198;-78
2021/09/29 12:33:01;;;;;;;31.00;20.67;;;;;;;16.88;93.60;95523.50;5111178;28;20448;-77
2021/09/29 12:35:38;;;;;;;24.70;20.60;;;;;;;17.01;93.56;95530.06;5111170;28;20444;-78
2021/09/29 12:38:05;;;;;;;23.73;20.00;;;;;;;17.03;91.42;95528.09;5111052;28;20440;-78
2021/09/29 12:40:34;;;;;;;29.43;23.33;;;;;;;17.12;90.48;95520.22;5110663;28;20453;-79
2021/09/29 12:43:05;;;;;;;32.50;22.27;;;;;;;17.23;89.88;95522.63;5110662;28;20443;-77
2021/09/29 12:45:35;;;;;;;24.53;20.53;;;;;;;17.26;88.44;95522.31;5110440;28;20453;-77
2021/09/29 12:48:02;;;;;;;25.50;19.87;;;;;;;17.29;88.38;95519.34;5110240;28;20784;-78
2021/09/29 12:50:38;;;;;;;26.03;19.83;;;;;;;17.67;98.21;95510.16;5111263;28;20443;-77
2021/09/29 12:53:16;;;;;;;22.47;19.03;;;;;;;18.50;94.47;95519.09;5110543;28;20453;-76
2021/09/29 12:55:47;;;;;;;21.60;18.40;;;;;;;18.25;84.52;95525.34;5110444;28;20839;-77
2021/09/29 12:58:15;;;;;;;19.43;17.03;;;;;;;18.12;83.46;95524.94;5110593;28;20472;-77
2021/09/29 13:00:42;;;;;;;23.43;19.03;;;;;;;18.03;83.81;95525.91;5110572;28;20440;-78
2021/09/29 13:03:09;;;;;;;25.77;18.33;;;;;;;18.00;84.18;95521.75;5110367;28;20522;-77
2021/09/29 13:05:37;;;;;;;24.63;18.00;;;;;;;17.75;84.08;95523.47;5110302;28;20935;-77
2021/09/29 13:08:04;;;;;;;25.17;18.60;;;;;;;17.79;83.85;95521.31;5110530;28;20445;-77
2021/09/29 13:10:30;;;;;;;20.00;17.23;;;;;;;17.70;83.79;95522.28;5110299;28;20443;-77
2021/09/29 13:12:57;;;;;;;20.60;17.20;;;;;;;17.61;84.98;95522.19;5110317;28;20448;-77
2021/09/29 13:15:26;;;;;;;22.10;16.30;;;;;;;17.51;84.38;95515.34;5110101;28;20443;-77
2021/09/29 13:17:55;;;;;;;23.80;17.23;;;;;;;17.47;84.53;95511.34;5097639;28;20452;-76
2021/09/29 13:20:25;;;;;;;22.90;17.30;;;;;;;17.43;84.34;95510.00;5096728;28;21326;-76
2021/09/29 13:22:56;;;;;;;19.93;16.63;;;;;;;17.43;85.42;95510.81;5109981;28;20443;-77
2021/09/29 13:36:34;;;;;;;21.37;16.03;;;;;;;17.30;84.12;95516.53;5109450;28;20445;-77
2021/09/29 13:39:02;;;;;;;22.83;17.63;;;;;;;17.10;85.31;95515.06;5082273;28;20444;-77
2021/09/29 13:41:29;;;;;;;23.87;19.20;;;;;;;17.13;86.21;95503.31;5087468;28;20976;-77
2021/09/29 13:43:56;;;;;;;24.73;18.20;;;;;;;16.88;86.06;95507.59;5084482;28;20448;-78
2021/09/29 13:46:24;;;;;;;18.50;16.50;;;;;;;16.81;86.78;95522.47;5092754;28;20983;-78
2021/09/29 13:48:53;;;;;;;20.13;17.73;;;;;;;16.77;87.44;95519.28;5095782;28;20932;-77
2021/09/29 13:51:20;;;;;;;17.97;15.27;;;;;;;16.83;87.03;95510.72;5093975;28;20513;-77
2021/09/29 13:53:47;;;;;;;20.50;16.40;;;;;;;16.96;86.77;95510.31;5095556;28;20565;-78